Time;durP1;ratioP1;P1;durP2;ratioP2;P2;SDS_P1;SDS_P2;PMS_P1;PMS_P2;Temp;Humidity;BMP_temperature;BMP_pressure;BME280_temperature;BME280_humidity;BME280_pressure;Samples;Min_cycle;Max_cycle;Signal;HPM_P1;HPM_P2
2023/03/20 12:12:30;;;;;;;18.13;4.00;;;16.00;99.90;;;;;;4996810;28;20625;-79
2023/03/20 12:15:04;;;;;;;16.20;4.10;;;15.20;99.90;;;;;;4956241;28;20223;-80
2023/03/20 12:25:24;;;;;;;16.87;3.70;;;16.30;99.90;;;;;;5018604;28;20738;-80
2023/03/20 12:28:09;;;;;;;15.70;4.30;;;16.60;99.90;;;;;;5000968;28;20674;-79
2023/03/20 12:30:42;;;;;;;18.60;4.20;;;16.90;99.90;;;;;;5015105;28;20559;-80
2023/03/20 12:33:14;;;;;;;17.80;4.40;;;16.70;99.90;;;;;;5012667;28;20220;-80
2023/03/20 12:35:46;;;;;;;14.00;4.10;;;16.70;99.90;;;;;;5002962;28;20869;-81
2023/03/20 12:38:30;;;;;;;15.53;4.20;;;16.90;99.90;;;;;;5017081;28;20225;-80
2023/03/20 12:41:12;;;;;;;14.40;4.50;;;16.50;99.90;;;;;;5001162;28;20696;-87
2023/03/20 12:43:52;;;;;;;18.40;4.20;;;16.20;99.90;;;;;;5012075;28;20216;-79
2023/03/20 12:46:24;;;;;;;17.10;4.40;;;16.40;99.90;;;;;;4955283;28;30161;-80
2023/03/20 12:49:19;;;;;;;14.50;4.33;;;16.70;99.90;;;;;;5018583;28;20563;-79
2023/03/20 12:52:07;;;;;;;16.67;4.17;;;16.90;99.90;;;;;;4999347;28;20211;-79
2023/03/20 12:54:35;;;;;;;15.93;4.37;;;17.20;99.90;;;;;;4987258;28;20219;-80
2023/03/20 12:57:29;;;;;;;17.20;4.20;;;17.40;99.90;;;;;;4996387;28;20610;-80
2023/03/20 13:00:01;;;;;;;16.70;4.27;;;17.70;99.90;;;;;;4993132;28;20596;-81
2023/03/20 13:02:38;;;;;;;19.43;4.80;;;17.60;99.90;;;;;;4981212;28;20250;-80
2023/03/20 13:05:19;;;;;;;18.83;4.20;;;17.30;99.90;;;;;;4994957;28;20215;-79
2023/03/20 13:08:09;;;;;;;20.43;5.63;;;16.80;99.90;;;;;;5000073;28;20588;-79
2023/03/20 13:11:05;;;;;;;21.53;4.80;;;16.20;99.90;;;;;;5026652;28;20225;-79
2023/03/20 13:13:41;;;;;;;16.10;4.57;;;15.70;99.90;;;;;;4996421;28;20244;-79
2023/03/20 13:16:11;;;;;;;20.90;4.77;;;15.60;99.90;;;;;;5015209;28;20239;-80
2023/03/20 13:18:58;;;;;;;18.47;5.30;;;15.90;99.90;;;;;;4997358;28;20209;-79
2023/03/20 13:21:37;;;;;;;19.03;4.83;;;16.20;99.90;;;;;;4997321;28;20222;-79
2023/03/20 13:24:26;;;;;;;17.43;4.80;;;15.90;99.90;;;;;;5014586;28;20232;-80
2023/03/20 13:27:04;;;;;;;17.40;4.70;;;15.80;99.90;;;;;;4994710;28;20217;-80
2023/03/20 13:29:49;;;;;;;20.63;5.63;;;15.70;99.90;;;;;;4994695;28;20228;-80
2023/03/20 13:32:14;;;;;;;28.13;9.50;;;15.60;99.90;;;;;;4993817;28;20682;-80
2023/03/20 13:35:08;;;;;;;26.70;11.97;;;15.30;99.90;;;;;;5013037;28;20266;-80
2023/03/20 13:37:37;;;;;;;45.23;19.73;;;15.20;99.90;;;;;;4986921;28;20218;-81
2023/03/20 13:40:15;;;;;;;57.93;30.10;;;15.00;99.90;;;;;;4994242;28;20228;-79
2023/03/20 13:42:57;;;;;;;105.93;66.30;;;15.00;99.90;;;;;;4996230;28;20234;-80
2023/03/20 13:45:30;;;;;;;18.13;5.67;;;15.00;99.90;;;;;;4983573;28;20216;-80
2023/03/20 13:47:59;;;;;;;19.20;5.00;;;15.00;99.90;;;;;;5015558;28;20227;-79
2023/03/20 13:50:35;;;;;;;17.57;5.57;;;15.10;99.90;;;;;;4997569;28;20207;-80
2023/03/20 13:53:29;;;;;;;18.90;5.57;;;15.10;99.90;;;;;;4995266;28;20219;-80
2023/03/20 13:56:03;;;;;;;17.27;5.30;;;15.30;99.90;;;;;;5018216;28;20222;-80
2023/03/20 13:58:38;;;;;;;21.83;6.10;;;15.30;99.90;;;;;;5017864;28;20224;-79
2023/03/20 14:01:32;;;;;;;26.80;5.73;;;15.30;99.90;;;;;;5015944;28;20225;-79
2023/03/20 14:03:59;;;;;;;19.03;5.70;;;15.10;99.90;;;;;;4959848;28;20760;-80
2023/03/20 14:06:31;;;;;;;17.93;5.27;;;15.10;99.90;;;;;;5030332;28;20211;-80
2023/03/20 14:08:58;;;;;;;18.80;6.17;;;15.10;99.90;;;;;;4996002;28;20749;-81
2023/03/20 14:11:34;;;;;;;17.70;5.97;;;15.10;99.90;;;;;;5016441;28;20240;-79
2023/03/20 14:14:03;;;;;;;19.33;5.77;;;14.90;99.90;;;;;;4998208;28;20682;-79
2023/03/20 14:16:29;;;;;;;18.73;5.70;;;15.10;99.90;;;;;;4999172;28;20235;-79
2023/03/20 14:19:18;;;;;;;21.13;5.87;;;15.30;99.90;;;;;;5018370;28;20224;-79
2023/03/20 14:21:50;;;;;;;17.00;5.20;;;15.20;99.90;;;;;;5012664;28;20223;-79
2023/03/20 14:24:19;;;;;;;21.97;5.97;;;15.10;99.90;;;;;;5014092;28;20645;-79
2023/03/20 14:26:51;;;;;;;21.00;5.97;;;15.00;99.90;;;;;;5014879;28;20728;-79
2023/03/20 14:29:17;;;;;;;20.00;5.40;;;15.10;99.90;;;;;;4999789;28;20235;-81
2023/03/20 14:31:48;;;;;;;21.13;5.90;;;15.00;99.90;;;;;;4989051;28;20223;-80
2023/03/20 14:34:17;;;;;;;23.03;5.60;;;15.00;99.90;;;;;;4981105;28;20226;-79
2023/03/20 14:36:45;;;;;;;17.80;5.37;;;14.80;99.90;;;;;;5013554;28;20236;-79
2023/03/20 14:39:49;;;;;;;23.07;6.00;;;14.90;99.90;;;;;;5000323;28;20655;-79
2023/03/20 14:42:43;;;;;;;18.97;5.43;;;15.20;99.90;;;;;;5010274;28;20225;-79
2023/03/20 14:45:11;;;;;;;20.00;5.27;;;15.40;99.90;;;;;;4999019;28;20224;-80
2023/03/20 14:48:16;;;;;;;20.67;5.40;;;15.40;99.90;;;;;;4996491;28;20224;-79
2023/03/20 14:50:45;;;;;;;20.97;5.60;;;15.30;99.90;;;;;;5000496;28;20292;-81
2023/03/20 14:53:25;;;;;;;21.03;5.83;;;15.10;99.90;;;;;;4982825;28;20216;-79
2023/03/20 14:55:56;;;;;;;19.97;5.67;;;15.00;99.90;;;;;;5014551;28;20224;-79
2023/03/20 14:58:42;;;;;;;21.27;5.57;;;14.90;99.90;;;;;;5017043;28;20330;-80
2023/03/20 15:01:20;;;;;;;26.70;6.23;;;14.80;99.90;;;;;;4981722;28;20216;-79
2023/03/20 15:03:58;;;;;;;20.40;5.77;;;14.80;99.90;;;;;;5013130;28;20694;-79
2023/03/20 15:06:26;;;;;;;19.60;5.33;;;14.80;99.90;;;;;;5009225;28;20254;-80
2023/03/20 15:08:59;;;;;;;21.10;5.53;;;14.80;99.90;;;;;;5016000;28;20281;-79
2023/03/20 15:11:26;;;;;;;16.47;5.77;;;14.90;99.90;;;;;;4999891;28;20240;-78
2023/03/20 15:13:53;;;;;;;21.70;6.20;;;15.10;99.90;;;;;;4998533;28;20219;-81
2023/03/20 15:16:27;;;;;;;17.73;5.60;;;15.30;99.90;;;;;;5000261;28;20571;-81
2023/03/20 15:18:54;;;;;;;20.17;5.77;;;15.30;99.90;;;;;;4999656;28;20303;-79
2023/03/20 15:21:33;;;;;;;23.13;6.50;;;14.90;99.90;;;;;;5003062;28;20266;-80
2023/03/20 15:24:00;;;;;;;22.03;6.23;;;14.90;99.90;;;;;;4998876;28;20224;-76
2023/03/20 15:26:28;;;;;;;23.23;6.30;;;14.50;99.90;;;;;;4998550;28;20246;-80
2023/03/20 15:29:11;;;;;;;19.33;6.30;;;14.60;99.90;;;;;;4998327;28;20232;-80
2023/03/20 15:31:38;;;;;;;19.07;6.30;;;14.80;99.90;;;;;;5016173;28;20246;-79
2023/03/20 15:34:24;;;;;;;18.13;6.20;;;15.00;99.90;;;;;;4996218;28;20680;-79
2023/03/20 15:36:50;;;;;;;20.87;7.00;;;14.70;99.90;;;;;;4987388;28;20679;-79
2023/03/20 15:39:20;;;;;;;15.50;6.57;;;14.60;99.90;;;;;;5000247;28;20223;-79
2023/03/20 15:42:02;;;;;;;22.90;6.47;;;14.60;99.90;;;;;;5016566;28;20212;-79
2023/03/20 15:44:40;;;;;;;20.47;6.10;;;14.60;99.90;;;;;;4988746;28;20220;-79
2023/03/20 15:47:09;;;;;;;20.13;6.53;;;14.80;99.90;;;;;;4986116;28;20228;-79
2023/03/20 15:49:35;;;;;;;21.07;6.47;;;14.80;99.90;;;;;;5018700;28;20274;-79
2023/03/20 15:52:06;;;;;;;22.80;6.07;;;15.00;99.90;;;;;;5000396;28;20235;-78
2023/03/20 15:54:36;;;;;;;22.47;7.23;;;14.90;99.90;;;;;;5018778;28;20601;-79
2023/03/20 15:57:02;;;;;;;17.67;5.83;;;15.00;99.90;;;;;;4983219;28;20734;-79
2023/03/20 15:59:31;;;;;;;25.13;6.10;;;15.00;99.90;;;;;;5018703;28;20225;-79
2023/03/20 16:01:59;;;;;;;20.40;5.47;;;15.00;99.90;;;;;;5017317;28;20238;-81
2023/03/20 16:04:26;;;;;;;23.40;5.93;;;14.90;99.90;;;;;;5011372;28;20897;-78
2023/03/20 16:06:53;;;;;;;21.53;5.93;;;14.80;99.90;;;;;;5012097;28;20244;-78
2023/03/20 16:09:19;;;;;;;17.43;5.87;;;14.70;99.90;;;;;;5001218;28;21822;-79
2023/03/20 16:11:47;;;;;;;22.13;5.87;;;14.60;99.90;;;;;;5015490;28;20670;-78
2023/03/20 16:14:21;;;;;;;21.30;5.87;;;14.70;99.90;;;;;;4989825;28;20231;-78
2023/03/20 16:16:50;;;;;;;20.03;5.97;;;14.60;99.90;;;;;;4998866;28;20251;-79
2023/03/20 16:19:16;;;;;;;19.30;5.13;;;14.70;99.90;;;;;;5008362;28;20243;-81
2023/03/20 16:21:55;;;;;;;20.27;6.80;;;14.70;99.90;;;;;;4975305;28;20759;-83
2023/03/20 16:24:29;;;;;;;23.50;6.23;;;14.70;99.90;;;;;;5009528;28;20220;-81
2023/03/20 16:26:56;;;;;;;19.57;5.80;;;14.70;99.90;;;;;;5010280;28;20707;-80
2023/03/20 16:29:25;;;;;;;19.43;5.83;;;14.70;99.90;;;;;;4990528;28;20235;-80
2023/03/20 16:31:56;;;;;;;23.67;6.83;;;14.60;99.90;;;;;;4991914;28;20218;-79
2023/03/20 16:34:31;;;;;;;23.17;5.67;;;14.50;99.90;;;;;;5009278;28;20281;-79
2023/03/20 16:37:00;;;;;;;19.43;5.97;;;14.30;99.90;;;;;;4992042;28;20310;-80
2023/03/20 16:39:30;;;;;;;22.93;6.53;;;14.40;99.90;;;;;;5002768;28;20287;-80
2023/03/20 16:42:17;;;;;;;20.10;6.10;;;14.40;99.90;;;;;;5016228;28;20239;-79
2023/03/20 16:44:43;;;;;;;24.43;7.03;;;14.30;99.90;;;;;;5006470;28;20234;-79
2023/03/20 16:47:09;;;;;;;22.73;7.17;;;14.30;99.90;;;;;;4998975;28;20227;-78
2023/03/20 16:49:54;;;;;;;20.60;7.00;;;14.40;99.90;;;;;;4994690;28;20718;-78
2023/03/20 16:52:35;;;;;;;22.70;6.40;;;14.50;99.90;;;;;;4993026;28;20236;-79
2023/03/20 16:55:01;;;;;;;18.83;6.60;;;14.50;99.90;;;;;;5008393;28;20223;-78
2023/03/20 16:57:35;;;;;;;23.80;6.10;;;14.40;99.90;;;;;;4992421;28;20229;-78
2023/03/20 17:00:17;;;;;;;21.90;6.10;;;14.40;99.90;;;;;;4983100;28;20232;-78
2023/03/20 17:02:50;;;;;;;20.90;5.87;;;14.40;99.90;;;;;;4991348;28;20286;-78
2023/03/20 17:05:19;;;;;;;18.90;6.00;;;14.50;99.90;;;;;;4981864;28;20217;-80
2023/03/20 17:07:56;;;;;;;19.00;6.73;;;14.40;99.90;;;;;;4917699;28;20218;-78
2023/03/20 17:10:28;;;;;;;18.33;6.53;;;14.50;99.90;;;;;;4695239;28;20401;-74
2023/03/20 17:12:54;;;;;;;27.07;6.63;;;14.60;99.90;;;;;;5001829;28;20211;-75
2023/03/20 17:15:22;;;;;;;19.80;6.40;;;14.50;99.90;;;;;;5004222;28;20305;-74
2023/03/20 17:17:49;;;;;;;18.50;6.27;;;14.50;99.90;;;;;;5009907;28;20222;-75
2023/03/20 17:20:19;;;;;;;18.30;6.07;;;14.50;99.90;;;;;;5009764;28;20220;-75
2023/03/20 17:22:45;;;;;;;22.07;6.17;;;14.40;99.90;;;;;;5010128;28;20221;-73
2023/03/20 17:25:11;;;;;;;19.30;5.43;;;14.40;99.90;;;;;;5024092;28;20388;-74
2023/03/20 17:27:39;;;;;;;21.17;6.10;;;14.30;99.90;;;;;;5027430;28;20214;-74
2023/03/20 17:30:06;;;;;;;18.07;5.67;;;14.20;99.90;;;;;;4998951;28;20224;-74
2023/03/20 17:32:32;;;;;;;18.80;5.37;;;14.00;99.90;;;;;;4993511;28;20258;-73
2023/03/20 17:34:58;;;;;;;19.10;6.10;;;14.00;99.90;;;;;;5026569;28;20788;-76
2023/03/20 17:37:27;;;;;;;18.07;5.57;;;14.00;99.90;;;;;;5027924;28;20211;-75
2023/03/20 17:39:55;;;;;;;20.23;5.97;;;14.00;99.90;;;;;;5009855;28;20214;-75
2023/03/20 17:42:25;;;;;;;19.87;6.10;;;13.90;99.90;;;;;;5008521;28;20265;-73
2023/03/20 17:44:52;;;;;;;20.10;5.97;;;13.90;99.90;;;;;;4993128;28;20617;-73
2023/03/20 17:47:20;;;;;;;19.57;5.70;;;13.90;99.90;;;;;;5019655;28;20282;-73
2023/03/20 17:49:46;;;;;;;16.60;5.63;;;13.80;99.90;;;;;;5006835;28;20236;-73
2023/03/20 17:52:17;;;;;;;18.83;5.40;;;13.80;99.90;;;;;;5025762;28;20731;-73
2023/03/20 17:54:44;;;;;;;25.17;5.87;;;13.80;99.90;;;;;;5021971;28;20217;-74
2023/03/20 17:57:19;;;;;;;18.47;6.30;;;13.70;99.90;;;;;;5008073;28;20230;-74
2023/03/20 17:59:44;;;;;;;21.40;6.77;;;13.50;99.90;;;;;;5003005;28;20234;-74
2023/03/20 18:02:10;;;;;;;19.23;6.70;;;13.50;99.90;;;;;;5008395;28;20304;-75
2023/03/20 18:04:36;;;;;;;24.70;6.73;;;13.40;99.90;;;;;;5007605;28;20654;-75
2023/03/20 18:07:02;;;;;;;21.87;8.10;;;13.30;99.90;;;;;;5025424;28;20234;-75
2023/03/20 18:09:29;;;;;;;19.47;7.40;;;13.30;99.90;;;;;;5026195;28;20226;-75
2023/03/20 18:11:56;;;;;;;21.03;7.20;;;13.30;99.90;;;;;;5008474;28;20240;-75
2023/03/20 18:14:21;;;;;;;21.73;8.00;;;13.30;99.90;;;;;;5007538;28;20221;-75
2023/03/20 18:16:47;;;;;;;19.73;8.50;;;13.20;99.90;;;;;;5020496;28;20226;-75
2023/03/20 18:19:28;;;;;;;22.80;7.40;;;13.10;99.90;;;;;;5026072;28;20568;-74
2023/03/20 18:21:54;;;;;;;22.13;7.93;;;13.30;99.90;;;;;;5002168;28;20227;-75
2023/03/20 18:24:20;;;;;;;23.73;7.30;;;13.30;99.90;;;;;;5008791;28;20227;-75
2023/03/20 18:26:47;;;;;;;19.27;7.50;;;13.30;99.90;;;;;;5023015;28;20700;-75
2023/03/20 18:29:13;;;;;;;24.50;7.23;;;13.20;99.90;;;;;;5023594;28;20224;-75
2023/03/20 18:31:39;;;;;;;22.77;7.33;;;13.00;99.90;;;;;;5022754;28;20678;-75
2023/03/20 18:34:05;;;;;;;20.53;8.23;;;12.90;99.90;;;;;;4989913;28;20220;-75
2023/03/20 18:36:31;;;;;;;28.00;7.80;;;12.80;99.90;;;;;;5007448;28;20220;-75
2023/03/20 18:38:58;;;;;;;22.23;7.17;;;12.70;99.90;;;;;;5008906;28;20216;-75
2023/03/20 18:41:24;;;;;;;23.10;7.77;;;12.60;99.90;;;;;;5008355;28;20546;-74
2023/03/20 18:43:50;;;;;;;20.37;7.83;;;12.70;99.90;;;;;;5005772;28;20255;-75
2023/03/20 18:46:19;;;;;;;19.20;7.20;;;12.70;99.90;;;;;;5005689;28;20224;-74
2023/03/20 18:48:45;;;;;;;21.80;7.47;;;12.60;99.90;;;;;;5007681;28;20845;-74
2023/03/20 18:51:11;;;;;;;21.10;7.47;;;12.60;99.90;;;;;;5024221;28;20304;-74
2023/03/20 18:53:39;;;;;;;20.57;7.30;;;12.60;99.90;;;;;;5007156;28;20223;-74
2023/03/20 18:56:10;;;;;;;18.97;7.07;;;12.60;99.90;;;;;;5005547;28;20217;-74
2023/03/20 18:58:36;;;;;;;22.97;6.60;;;12.70;99.90;;;;;;5024364;28;20597;-74
2023/03/20 19:01:02;;;;;;;19.63;6.90;;;12.60;99.90;;;;;;5002915;28;20283;-74
2023/03/20 19:03:28;;;;;;;23.30;6.70;;;12.70;99.90;;;;;;5002727;28;20232;-74
2023/03/20 19:05:56;;;;;;;23.53;7.53;;;12.70;99.90;;;;;;4999428;28;20273;-75
2023/03/20 19:08:22;;;;;;;17.10;6.77;;;12.60;99.90;;;;;;5007836;28;20236;-74
2023/03/20 19:10:49;;;;;;;17.40;6.60;;;12.70;99.90;;;;;;4995596;28;20233;-74
2023/03/20 19:13:17;;;;;;;17.70;6.57;;;12.70;99.90;;;;;;4993875;28;20217;-74
2023/03/20 19:15:44;;;;;;;20.57;7.03;;;12.80;99.90;;;;;;5008229;28;20224;-75
2023/03/20 19:18:25;;;;;;;17.50;6.10;;;12.90;99.90;;;;;;5029321;28;20217;-74
2023/03/20 19:20:55;;;;;;;21.77;6.50;;;12.90;99.90;;;;;;5008735;28;20230;-75
2023/03/20 19:23:23;;;;;;;19.53;6.50;;;12.90;99.90;;;;;;5023512;28;20309;-75
2023/03/20 19:25:51;;;;;;;19.73;6.60;;;12.90;99.90;;;;;;5013868;28;20756;-76
2023/03/20 19:28:28;;;;;;;18.43;6.13;;;12.90;99.90;;;;;;5014236;28;20222;-75
2023/03/20 19:30:55;;;;;;;19.07;6.47;;;12.80;99.90;;;;;;5023618;28;20220;-75
2023/03/20 19:33:22;;;;;;;21.97;7.07;;;12.80;99.90;;;;;;5029478;28;20212;-76
2023/03/20 19:35:49;;;;;;;19.57;6.10;;;12.90;99.90;;;;;;5010818;28;20751;-75
2023/03/20 19:38:18;;;;;;;16.80;6.07;;;12.80;99.90;;;;;;5009004;28;20231;-75
2023/03/20 19:40:46;;;;;;;19.23;6.23;;;12.90;99.90;;;;;;5024871;28;20210;-73
2023/03/20 19:43:14;;;;;;;20.70;6.43;;;12.90;99.90;;;;;;5017029;28;20237;-75
2023/03/20 19:45:42;;;;;;;17.03;7.10;;;12.90;99.90;;;;;;5000965;28;20215;-75
2023/03/20 19:48:19;;;;;;;18.83;6.13;;;12.90;99.90;;;;;;5022874;28;20262;-75
2023/03/20 19:50:48;;;;;;;17.33;6.33;;;12.90;99.90;;;;;;5012149;28;20215;-75
2023/03/20 19:53:16;;;;;;;17.73;5.70;;;12.90;99.90;;;;;;5027949;28;20245;-75
2023/03/20 19:55:42;;;;;;;13.27;6.07;;;12.90;99.90;;;;;;5026480;28;20248;-73
2023/03/20 19:58:08;;;;;;;19.87;6.50;;;12.90;99.90;;;;;;5023391;28;20556;-73
2023/03/20 20:00:39;;;;;;;20.67;6.03;;;12.90;99.90;;;;;;5006629;28;20221;-75
2023/03/20 20:03:19;;;;;;;15.70;6.10;;;12.90;99.90;;;;;;4989924;28;20221;-73
2023/03/20 20:05:46;;;;;;;20.27;6.50;;;12.80;99.90;;;;;;5007655;28;20214;-73
2023/03/20 20:08:13;;;;;;;21.17;7.10;;;12.80;99.90;;;;;;5008483;28;20217;-76
2023/03/20 20:10:42;;;;;;;17.80;5.90;;;12.80;99.90;;;;;;5029155;28;20225;-77
2023/03/20 20:13:23;;;;;;;14.77;6.03;;;12.80;99.90;;;;;;5029584;28;20221;-77
2023/03/20 20:15:49;;;;;;;18.23;6.70;;;12.80;99.90;;;;;;5025984;28;20209;-74
2023/03/20 20:18:17;;;;;;;16.70;5.87;;;12.80;99.90;;;;;;5005898;28;20216;-77
2023/03/20 20:20:43;;;;;;;20.97;6.20;;;12.80;99.90;;;;;;5005672;28;20218;-77
2023/03/20 20:23:11;;;;;;;17.00;6.30;;;12.80;99.90;;;;;;5023000;28;20288;-78
2023/03/20 20:25:38;;;;;;;16.47;6.00;;;12.80;99.90;;;;;;5002803;28;20225;-79
2023/03/20 20:28:05;;;;;;;16.00;5.93;;;12.90;99.90;;;;;;5011588;28;20229;-78
2023/03/20 20:30:31;;;;;;;15.07;5.90;;;12.80;99.90;;;;;;5030185;28;20220;-77
2023/03/20 20:32:58;;;;;;;15.00;6.20;;;12.80;99.90;;;;;;5008039;28;20210;-74
2023/03/20 20:35:24;;;;;;;17.47;6.80;;;12.90;99.90;;;;;;5028837;28;21013;-74
2023/03/20 20:37:51;;;;;;;17.97;6.03;;;12.90;99.90;;;;;;5028882;28;20312;-75
2023/03/20 20:40:19;;;;;;;17.13;5.83;;;12.90;99.90;;;;;;5006550;28;20344;-74
2023/03/20 20:42:45;;;;;;;20.07;6.50;;;13.00;99.90;;;;;;4995972;28;20232;-73
2023/03/20 20:45:12;;;;;;;19.87;6.40;;;13.10;99.90;;;;;;5008025;28;20223;-78
2023/03/20 20:47:45;;;;;;;16.90;6.10;;;13.00;99.90;;;;;;5024404;28;20220;-78
2023/03/20 20:50:13;;;;;;;14.97;5.53;;;13.00;99.90;;;;;;5028926;28;20232;-74
2023/03/20 20:52:40;;;;;;;14.80;5.60;;;13.10;99.90;;;;;;5008941;28;20305;-72
2023/03/20 20:55:07;;;;;;;16.87;6.40;;;13.00;99.90;;;;;;5027255;28;20213;-77
2023/03/20 20:57:33;;;;;;;14.87;6.03;;;13.00;99.90;;;;;;5028568;28;20783;-73
2023/03/20 20:59:59;;;;;;;17.07;7.03;;;13.00;99.90;;;;;;5010351;28;20225;-74
2023/03/20 21:02:27;;;;;;;14.70;5.83;;;13.00;99.90;;;;;;5010507;28;20221;-74
2023/03/20 21:04:54;;;;;;;18.13;6.47;;;12.90;99.90;;;;;;5027766;28;20684;-74
2023/03/20 21:07:20;;;;;;;17.87;6.30;;;12.90;99.90;;;;;;5009363;28;20700;-73
2023/03/20 21:09:46;;;;;;;13.20;5.97;;;12.90;99.90;;;;;;5021629;28;20221;-74
2023/03/20 21:12:13;;;;;;;13.17;6.43;;;12.90;99.90;;;;;;5011137;28;20243;-74
2023/03/20 21:14:40;;;;;;;15.70;6.17;;;12.90;99.90;;;;;;5027824;28;20221;-74
2023/03/20 21:17:07;;;;;;;16.33;7.27;;;12.90;99.90;;;;;;5026840;28;20230;-74
2023/03/20 21:19:36;;;;;;;15.43;6.87;;;13.00;99.90;;;;;;5008713;28;20216;-74
2023/03/20 21:22:03;;;;;;;16.50;6.80;;;12.90;99.90;;;;;;5009970;28;20225;-73
2023/03/20 21:24:30;;;;;;;16.87;5.93;;;13.00;99.90;;;;;;5024502;28;20221;-75
2023/03/20 21:27:06;;;;;;;17.80;6.63;;;12.90;99.90;;;;;;4998558;28;20218;-74
2023/03/20 21:29:33;;;;;;;16.33;7.13;;;12.90;99.90;;;;;;5017796;28;20790;-74
2023/03/20 21:31:59;;;;;;;15.90;6.27;;;12.90;99.90;;;;;;5028401;28;20220;-74
2023/03/20 21:34:25;;;;;;;17.70;6.27;;;13.00;99.90;;;;;;4996448;28;20218;-74
2023/03/20 21:36:51;;;;;;;17.03;6.47;;;12.90;99.90;;;;;;5008849;28;20216;-74
2023/03/20 21:39:17;;;;;;;17.33;5.93;;;12.90;99.90;;;;;;5026741;28;20221;-75
2023/03/20 21:41:43;;;;;;;15.93;6.00;;;12.90;99.90;;;;;;5008394;28;20209;-73
2023/03/20 21:44:09;;;;;;;16.97;6.87;;;12.80;99.90;;;;;;5026963;28;20261;-74
2023/03/20 21:46:35;;;;;;;14.90;5.87;;;12.80;99.90;;;;;;5026392;28;20228;-75
2023/03/20 21:49:01;;;;;;;20.90;6.13;;;12.90;99.90;;;;;;5014174;28;20229;-74
2023/03/20 21:51:27;;;;;;;18.30;6.17;;;12.90;99.90;;;;;;5009776;28;20228;-74
2023/03/20 21:53:52;;;;;;;14.67;5.30;;;12.90;99.90;;;;;;5026676;28;20222;-75
2023/03/20 21:56:18;;;;;;;16.43;5.80;;;12.90;99.90;;;;;;5010825;28;20221;-74
2023/03/20 21:58:44;;;;;;;18.70;6.43;;;13.00;99.90;;;;;;5015918;28;20219;-74
2023/03/20 22:01:10;;;;;;;14.60;5.87;;;13.10;99.90;;;;;;5026876;28;20768;-75
2023/03/20 22:03:38;;;;;;;17.63;6.40;;;13.10;99.90;;;;;;5027790;28;20579;-75
2023/03/20 22:06:05;;;;;;;14.27;5.90;;;13.10;99.90;;;;;;5004299;28;20585;-75
2023/03/20 22:08:31;;;;;;;15.67;6.20;;;13.10;99.90;;;;;;5014739;28;20235;-75
2023/03/20 22:10:56;;;;;;;15.80;5.60;;;13.00;99.90;;;;;;5027582;28;20938;-75
2023/03/20 22:13:22;;;;;;;18.10;6.13;;;13.10;99.90;;;;;;5027525;28;20220;-74
2023/03/20 22:15:48;;;;;;;18.70;6.33;;;13.10;99.90;;;;;;5024178;28;20223;-74
2023/03/20 22:18:15;;;;;;;17.90;6.40;;;13.10;99.90;;;;;;5023387;28;20227;-74
2023/03/20 22:20:45;;;;;;;18.20;5.97;;;13.10;99.90;;;;;;5022973;28;20224;-74
2023/03/20 22:23:11;;;;;;;13.73;6.10;;;13.10;99.90;;;;;;5025506;28;20233;-74
2023/03/20 22:25:37;;;;;;;16.97;5.67;;;13.10;99.90;;;;;;5024296;28;20216;-74
2023/03/20 22:28:03;;;;;;;16.13;5.97;;;13.10;99.90;;;;;;5024997;28;20261;-74
2023/03/20 22:30:29;;;;;;;19.23;5.63;;;13.10;99.90;;;;;;5006249;28;20284;-74
2023/03/20 22:32:55;;;;;;;17.90;6.10;;;12.90;99.90;;;;;;5025727;28;20213;-74
2023/03/20 22:35:20;;;;;;;15.60;5.33;;;12.90;99.90;;;;;;5023652;28;20564;-74
2023/03/20 22:37:46;;;;;;;16.30;6.10;;;12.90;99.90;;;;;;5022602;28;20278;-74
2023/03/20 22:40:13;;;;;;;14.63;5.43;;;12.90;99.90;;;;;;5024065;28;20219;-74
2023/03/20 22:42:40;;;;;;;18.97;5.73;;;12.90;99.90;;;;;;5025720;28;20217;-74
2023/03/20 22:45:06;;;;;;;14.10;5.43;;;12.90;99.90;;;;;;5023955;28;20613;-74
2023/03/20 22:47:33;;;;;;;17.00;6.00;;;13.00;99.90;;;;;;5006369;28;20290;-74
2023/03/20 22:49:59;;;;;;;14.00;5.23;;;13.10;99.90;;;;;;5008327;28;20230;-74
2023/03/20 22:52:25;;;;;;;13.43;5.63;;;13.10;99.90;;;;;;4985484;28;20233;-74
2023/03/20 22:54:51;;;;;;;14.43;5.57;;;13.00;99.90;;;;;;5023964;28;20215;-74
2023/03/20 22:57:17;;;;;;;14.53;5.10;;;13.10;99.90;;;;;;5007222;28;20568;-74
2023/03/20 22:59:43;;;;;;;16.87;5.30;;;13.00;99.90;;;;;;5007438;28;20221;-74
2023/03/20 23:02:08;;;;;;;17.30;5.87;;;13.00;99.90;;;;;;5006780;28;20249;-74
2023/03/20 23:04:34;;;;;;;13.67;5.33;;;12.80;99.90;;;;;;5007362;28;20242;-74
2023/03/20 23:07:00;;;;;;;15.97;5.37;;;12.70;99.90;;;;;;5007935;28;20303;-74
2023/03/20 23:09:27;;;;;;;18.27;4.90;;;12.50;99.90;;;;;;5000703;28;20645;-74
2023/03/20 23:11:53;;;;;;;18.20;5.23;;;12.40;99.90;;;;;;5006105;28;20309;-74
2023/03/20 23:14:19;;;;;;;17.03;5.53;;;12.30;99.90;;;;;;5003241;28;20218;-74
2023/03/20 23:16:45;;;;;;;16.47;5.60;;;12.20;99.90;;;;;;5025937;28;20232;-74
2023/03/20 23:19:10;;;;;;;16.23;5.53;;;12.10;99.90;;;;;;5023527;28;20221;-74
2023/03/20 23:21:36;;;;;;;16.23;5.33;;;12.00;99.90;;;;;;5004605;28;20586;-74
2023/03/20 23:24:02;;;;;;;16.00;5.93;;;12.00;99.90;;;;;;5021014;28;20304;-74
2023/03/20 23:26:28;;;;;;;17.40;5.77;;;12.00;99.90;;;;;;5009342;28;20213;-74
2023/03/20 23:28:54;;;;;;;13.73;5.67;;;12.00;99.90;;;;;;5024217;28;20232;-74
2023/03/20 23:31:22;;;;;;;16.90;5.73;;;12.00;99.90;;;;;;5023913;28;20217;-74
2023/03/20 23:33:50;;;;;;;14.00;5.67;;;12.10;99.90;;;;;;5009700;28;20687;-74
2023/03/20 23:36:17;;;;;;;15.50;5.87;;;12.10;99.90;;;;;;5013042;28;20686;-74
2023/03/20 23:38:42;;;;;;;17.40;5.87;;;12.10;99.90;;;;;;5026298;28;20277;-74
2023/03/20 23:41:10;;;;;;;15.33;6.30;;;12.10;99.90;;;;;;5026478;28;20798;-74
2023/03/20 23:43:36;;;;;;;21.23;6.90;;;12.10;99.90;;;;;;5022348;28;20731;-74
2023/03/20 23:46:03;;;;;;;16.73;6.07;;;12.10;99.90;;;;;;5009036;28;20224;-75
2023/03/20 23:48:29;;;;;;;14.97;6.27;;;12.10;99.90;;;;;;5009015;28;20208;-74
2023/03/20 23:50:55;;;;;;;21.50;6.27;;;12.00;99.90;;;;;;5020282;28;20351;-74
2023/03/20 23:53:21;;;;;;;17.23;5.90;;;11.90;99.90;;;;;;5003464;28;20217;-75
2023/03/20 23:55:49;;;;;;;18.50;6.07;;;11.90;99.90;;;;;;5008607;28;20215;-75
2023/03/20 23:58:15;;;;;;;17.13;6.63;;;12.00;99.90;;;;;;5006618;28;20213;-74
